Terminal Aerodrome Forecast
Issued by NWS Caribou, ME

Home | Current Version | Previous Version | Text Only | Print | Product List | Glossary On
Versions: 1 2 3 4 5 6 7 8 9 10 11 12 13 14 15 16 17
000
FTUS41 KCAR 261700 RRA
TAFBGR
TAF
KBGR 261751Z 2618/2718 22011KT P6SM SCT250
     FM270100 19007KT P6SM SCT250
     FM270600 VRB03KT 4SM BR SCT002
     FM270900 00000KT 3/4SM BR SCT001 BKN100
     FM271100 17006KT 2SM BR BKN004
     FM271500 17010KT P6SM BKN020=

USA.gov is the U.S. government's official web portal to all federal, state and local government web resources and services.